Time;durP1;ratioP1;P1;durP2;ratioP2;P2;SDS_P1;SDS_P2;PMS_P1;PMS_P2;Temp;Humidity;BMP_temperature;BMP_pressure;BME280_temperature;BME280_humidity;BME280_pressure;Samples;Min_cycle;Max_cycle;Signal;HPM_P1;HPM_P2
2021/07/09 00:01:27;;;;;;;8.95;8.10;;;;;;;19.51;100.00;101238.94;4984527;28;20226;-76
2021/07/09 00:03:55;;;;;;;8.95;7.88;;;;;;;19.41;100.00;101236.44;4925416;28;20183;-74
2021/07/09 00:06:23;;;;;;;8.82;7.90;;;;;;;19.32;100.00;101241.91;4942059;28;20222;-76
2021/07/09 00:08:48;;;;;;;8.77;7.85;;;;;;;19.32;100.00;101241.91;4956838;28;20213;-74
2021/07/09 00:11:21;;;;;;;9.60;8.15;;;;;;;19.38;100.00;101242.59;4957407;28;20714;-75
2021/07/09 00:13:47;;;;;;;9.10;8.40;;;;;;;19.29;100.00;101252.75;4941514;28;20222;-75
2021/07/09 00:16:18;;;;;;;8.80;8.00;;;;;;;19.32;100.00;101246.59;4977549;28;20220;-76
2021/07/09 00:18:47;;;;;;;9.88;8.40;;;;;;;19.27;100.00;101230.22;4979698;28;20216;-75
2021/07/09 00:21:18;;;;;;;9.48;8.57;;;;;;;19.30;100.00;101235.06;4962054;28;20221;-74
2021/07/09 00:23:46;;;;;;;11.02;8.25;;;;;;;19.30;100.00;101237.81;4976543;28;20549;-75
2021/07/09 00:26:14;;;;;;;8.93;8.10;;;;;;;19.39;100.00;101239.50;4973124;28;20217;-73
2021/07/09 00:28:42;;;;;;;9.80;8.55;;;;;;;19.20;100.00;101231.78;4960923;28;20190;-74
2021/07/09 00:31:15;;;;;;;9.35;8.20;;;;;;;19.31;100.00;101233.97;4948262;28;20227;-74
2021/07/09 00:33:43;;;;;;;10.48;8.75;;;;;;;19.47;100.00;101241.50;4953408;28;20190;-74
2021/07/09 00:36:09;;;;;;;9.52;8.63;;;;;;;19.48;100.00;101250.59;4984031;28;20629;-74
2021/07/09 00:38:37;;;;;;;9.57;8.70;;;;;;;19.34;100.00;101249.88;4975470;28;20204;-76
2021/07/09 00:41:07;;;;;;;9.13;8.38;;;;;;;19.14;100.00;101261.41;4950730;28;20223;-75
2021/07/09 00:43:32;;;;;;;9.00;8.10;;;;;;;19.32;100.00;101252.94;4940878;28;20212;-75
2021/07/09 00:46:03;;;;;;;9.30;8.35;;;;;;;19.50;100.00;101248.31;4937532;28;20213;-75
2021/07/09 00:48:29;;;;;;;9.60;8.60;;;;;;;19.56;100.00;101258.06;4991244;28;20193;-74
2021/07/09 00:51:00;;;;;;;9.63;8.73;;;;;;;19.71;100.00;101251.03;4964902;28;20226;-77
2021/07/09 00:53:25;;;;;;;9.93;8.88;;;;;;;19.74;100.00;101247.66;4953150;28;20186;-75
2021/07/09 00:55:51;;;;;;;9.95;9.10;;;;;;;19.65;100.00;101262.53;4949590;28;20222;-75
2021/07/09 00:58:17;;;;;;;10.18;8.73;;;;;;;19.46;100.00;101269.38;4931180;29;20183;-74
2021/07/09 01:00:52;;;;;;;8.88;8.13;;;;;;;19.60;100.00;101275.63;4938505;28;20230;-74
2021/07/09 01:03:20;;;;;;;10.02;9.00;;;;;;;19.70;100.00;101276.97;4941756;28;20179;-75
2021/07/09 01:05:50;;;;;;;9.38;8.48;;;;;;;19.64;100.00;101269.16;4959631;28;20221;-74
2021/07/09 01:08:20;;;;;;;9.18;8.48;;;;;;;19.66;100.00;101271.59;4959630;28;20196;-75
2021/07/09 01:10:51;;;;;;;9.93;9.02;;;;;;;19.66;100.00;101269.66;4959912;28;20719;-74
2021/07/09 01:13:18;;;;;;;10.20;9.40;;;;;;;19.60;100.00;101259.91;4932433;28;20209;-74
2021/07/09 01:15:47;;;;;;;10.30;9.23;;;;;;;19.47;100.00;101254.50;4920891;29;20226;-75
2021/07/09 01:18:15;;;;;;;10.32;9.32;;;;;;;19.33;100.00;101251.00;4938807;29;20550;-74
2021/07/09 01:20:40;;;;;;;10.35;9.20;;;;;;;19.24;100.00;101255.63;4948545;28;20225;-75
2021/07/09 01:23:06;;;;;;;11.07;9.32;;;;;;;19.33;100.00;101245.47;4946311;28;20235;-76
2021/07/09 01:25:34;;;;;;;13.32;9.95;;;;;;;19.39;100.00;101244.22;4949123;28;20212;-75
2021/07/09 01:28:07;;;;;;;10.30;9.30;;;;;;;19.39;100.00;101247.78;4987907;28;20601;-75
2021/07/09 01:30:37;;;;;;;10.25;9.35;;;;;;;19.30;100.00;101248.84;4941278;28;20226;-75
2021/07/09 01:33:04;;;;;;;10.55;9.55;;;;;;;19.36;100.00;101253.13;4927700;28;20186;-76
2021/07/09 01:35:32;;;;;;;10.25;9.25;;;;;;;19.36;100.00;101253.13;4928726;28;20222;-75
2021/07/09 01:37:59;;;;;;;10.02;9.05;;;;;;;19.39;100.00;101252.47;4945898;28;20196;-75
2021/07/09 01:40:32;;;;;;;9.60;8.65;;;;;;;19.23;100.00;101253.19;4961339;28;20221;-76
2021/07/09 01:43:01;;;;;;;10.00;8.85;;;;;;;19.29;100.00;101241.72;4928598;28;20566;-74
2021/07/09 01:45:27;;;;;;;9.07;8.18;;;;;;;19.17;100.00;101249.75;4942624;28;20230;-76
2021/07/09 01:47:55;;;;;;;9.02;8.13;;;;;;;19.30;100.00;101246.94;4977540;28;20186;-76
2021/07/09 01:50:25;;;;;;;11.15;9.43;;;;;;;19.31;100.00;101239.47;4960892;28;20201;-75
2021/07/09 01:52:54;;;;;;;10.07;8.77;;;;;;;19.24;100.00;101258.38;4943754;28;20253;-76
2021/07/09 01:55:22;;;;;;;9.43;8.55;;;;;;;19.30;100.00;101251.59;4942563;28;20201;-76
2021/07/09 01:57:50;;;;;;;11.75;8.40;;;;;;;19.32;100.00;101249.34;4937575;28;20660;-77
2021/07/09 02:00:20;;;;;;;10.23;8.75;;;;;;;19.32;100.00;101252.09;4957850;28;20202;-76
2021/07/09 02:02:48;;;;;;;9.35;7.80;;;;;;;19.40;100.00;101254.13;4940773;28;20670;-75
2021/07/09 02:05:17;;;;;;;9.45;8.55;;;;;;;19.37;100.00;101265.75;4958167;28;20212;-76
2021/07/09 02:07:44;;;;;;;8.40;7.72;;;;;;;19.23;100.00;101265.03;4946814;28;20757;-75
2021/07/09 02:10:13;;;;;;;9.30;8.40;;;;;;;19.30;100.00;101262.63;4961153;28;20289;-76
2021/07/09 02:12:39;;;;;;;9.18;8.27;;;;;;;19.30;100.00;101271.72;4978913;28;20190;-76
2021/07/09 02:15:07;;;;;;;8.82;8.07;;;;;;;19.30;100.00;101273.66;4942435;28;20221;-75
2021/07/09 02:17:32;;;;;;;9.80;8.70;;;;;;;19.20;100.00;101276.69;4974597;28;20225;-74
2021/07/09 02:19:58;;;;;;;11.25;8.35;;;;;;;19.12;100.00;101268.34;4965296;28;20592;-76
2021/07/09 02:22:28;;;;;;;9.27;8.38;;;;;;;19.11;100.00;101272.22;4985373;28;20702;-75
2021/07/09 02:24:53;;;;;;;10.57;9.48;;;;;;;18.99;100.00;101274.72;4962059;28;20186;-74
2021/07/09 02:27:23;;;;;;;13.23;10.55;;;;;;;18.91;100.00;101281.75;4967599;28;20213;-74
2021/07/09 02:29:52;;;;;;;11.95;10.70;;;;;;;18.85;100.00;101278.66;4962009;28;20621;-75
2021/07/09 02:32:20;;;;;;;12.00;10.88;;;;;;;19.06;100.00;101284.16;4973577;28;20595;-76
2021/07/09 02:34:46;;;;;;;12.20;10.63;;;;;;;19.13;100.00;101287.31;4991653;28;20206;-76
2021/07/09 02:37:11;;;;;;;13.15;11.85;;;;;;;19.26;100.00;101288.38;4969157;28;20225;-76
2021/07/09 02:39:40;;;;;;;12.68;11.38;;;;;;;19.20;100.00;101284.13;4964498;28;20208;-76
2021/07/09 02:42:06;;;;;;;15.43;12.95;;;;;;;18.98;100.00;101278.63;4974554;28;20213;-76
2021/07/09 02:44:34;;;;;;;19.42;15.02;;;;;;;18.90;100.00;101271.06;4978055;28;20544;-75
2021/07/09 02:46:59;;;;;;;31.70;16.77;;;;;;;18.83;100.00;101275.34;4979608;28;20219;-75
2021/07/09 02:49:25;;;;;;;17.05;15.05;;;;;;;18.86;100.00;101274.75;4964074;28;20196;-77
2021/07/09 02:51:51;;;;;;;20.08;16.30;;;;;;;18.91;100.00;101267.19;4987907;28;20701;-76
2021/07/09 02:54:18;;;;;;;18.77;16.83;;;;;;;18.87;100.00;101259.88;4965046;28;20192;-76
2021/07/09 02:56:44;;;;;;;20.10;16.42;;;;;;;18.97;100.00;101254.94;4963373;28;20312;-75
2021/07/09 02:59:10;;;;;;;19.35;17.23;;;;;;;18.77;100.00;101254.59;4945063;28;20275;-76
2021/07/09 03:01:41;;;;;;;19.33;16.63;;;;;;;19.03;100.00;101254.53;4945354;28;20218;-75
2021/07/09 03:04:12;;;;;;;24.25;18.08;;;;;;;19.03;100.00;101262.78;4943209;28;20186;-74
2021/07/09 03:06:37;;;;;;;23.42;18.33;;;;;;;19.00;100.00;101252.38;4941558;28;20632;-74
2021/07/09 03:09:04;;;;;;;25.85;19.30;;;;;;;19.00;100.00;101257.88;4977021;28;20205;-74
2021/07/09 03:11:32;;;;;;;23.98;20.00;;;;;;;18.88;100.00;101254.84;4950920;28;20698;-74
2021/07/09 03:13:59;;;;;;;28.63;20.48;;;;;;;18.99;100.00;101248.00;4941263;28;20834;-74
2021/07/09 03:16:25;;;;;;;23.98;20.10;;;;;;;19.03;100.00;101257.28;4941630;28;20226;-76
2021/07/09 03:18:51;;;;;;;22.13;19.70;;;;;;;18.98;100.00;101259.34;4956196;28;20275;-76
2021/07/09 03:21:16;;;;;;;25.88;20.38;;;;;;;18.91;100.00;101248.72;4980170;28;20220;-75
2021/07/09 03:23:42;;;;;;;27.13;21.05;;;;;;;18.89;100.00;101252.91;4947816;28;20703;-76
2021/07/09 03:26:10;;;;;;;24.88;20.98;;;;;;;18.91;100.00;101251.47;4937947;29;20766;-75
2021/07/09 03:28:39;;;;;;;24.13;21.52;;;;;;;19.11;100.00;101239.19;4970860;28;20209;-75
2021/07/09 03:31:05;;;;;;;26.50;22.23;;;;;;;18.98;100.00;101232.59;4946521;28;20221;-75
2021/07/09 03:33:33;;;;;;;23.70;21.20;;;;;;;18.89;100.00;101225.38;4987314;28;20215;-75
2021/07/09 03:35:59;;;;;;;24.77;22.13;;;;;;;18.88;100.00;101227.31;4964170;28;20220;-74
2021/07/09 03:38:26;;;;;;;28.20;22.75;;;;;;;18.88;100.00;101214.66;4969814;28;20197;-74
2021/07/09 03:40:52;;;;;;;25.20;22.23;;;;;;;18.94;100.00;101217.81;4945070;28;20221;-75
2021/07/09 03:43:25;;;;;;;25.63;22.42;;;;;;;18.86;100.00;101220.47;4985092;28;20188;-76
2021/07/09 03:45:53;;;;;;;26.10;22.83;;;;;;;18.99;100.00;101209.47;4993271;28;20209;-78
2021/07/09 03:48:19;;;;;;;24.50;22.02;;;;;;;18.95;100.00;101208.44;4968965;28;20201;-76
2021/07/09 03:50:44;;;;;;;27.30;22.27;;;;;;;18.96;100.00;101207.28;4957055;28;20295;-75
2021/07/09 03:53:12;;;;;;;25.30;22.38;;;;;;;18.88;100.00;101197.03;4976457;28;20190;-75
2021/07/09 03:55:38;;;;;;;25.42;22.73;;;;;;;19.00;100.00;101188.22;4980712;28;20233;-75
2021/07/09 03:58:08;;;;;;;24.58;21.63;;;;;;;18.83;100.00;101185.34;4951211;28;20555;-76
2021/07/09 04:00:34;;;;;;;26.35;23.50;;;;;;;18.78;100.00;101185.44;4976551;28;20752;-76
2021/07/09 04:03:00;;;;;;;26.05;22.65;;;;;;;18.96;100.00;101177.00;4947460;28;20181;-75
2021/07/09 04:05:25;;;;;;;24.85;22.20;;;;;;;18.91;100.00;101182.63;4978991;28;20634;-76
2021/07/09 04:07:55;;;;;;;24.38;21.90;;;;;;;18.93;100.00;101177.59;4978869;28;20188;-76
2021/07/09 04:10:23;;;;;;;24.23;21.73;;;;;;;18.92;100.00;101169.69;4959185;28;20280;-75
2021/07/09 04:12:49;;;;;;;27.02;22.80;;;;;;;19.05;100.00;101174.34;4960525;28;20240;-74
2021/07/09 04:15:14;;;;;;;24.63;21.95;;;;;;;19.02;100.00;101170.25;4992237;28;20204;-74
2021/07/09 04:17:40;;;;;;;24.42;21.77;;;;;;;19.09;100.00;101172.56;4958812;28;20205;-77
2021/07/09 04:20:06;;;;;;;25.55;22.90;;;;;;;19.05;100.00;101174.34;4975407;28;20232;-75
2021/07/09 04:22:37;;;;;;;24.02;21.67;;;;;;;19.04;100.00;101173.50;4961330;28;20675;-76
2021/07/09 04:25:08;;;;;;;23.67;21.33;;;;;;;19.00;100.00;101174.47;4977743;28;20181;-75
2021/07/09 04:27:39;;;;;;;23.88;21.48;;;;;;;18.90;100.00;101172.75;4973967;28;20229;-75
2021/07/09 04:30:09;;;;;;;23.92;21.27;;;;;;;19.09;100.00;101170.63;4975028;28;20212;-76
2021/07/09 04:32:34;;;;;;;22.77;20.25;;;;;;;19.07;100.00;101174.84;4960121;28;20718;-75
2021/07/09 04:35:03;;;;;;;23.33;20.85;;;;;;;18.99;100.00;101179.16;4974957;28;20189;-76
2021/07/09 04:37:31;;;;;;;24.10;21.70;;;;;;;19.17;100.00;101171.78;4978830;28;20229;-75
2021/07/09 04:39:57;;;;;;;23.60;21.27;;;;;;;19.07;100.00;101178.41;4945350;28;20202;-75
2021/07/09 04:42:23;;;;;;;24.38;21.88;;;;;;;19.06;100.00;101182.25;4939587;28;20234;-75
2021/07/09 04:44:48;;;;;;;24.30;21.08;;;;;;;19.13;100.00;101177.13;4969148;28;20691;-75
2021/07/09 04:47:16;;;;;;;23.05;20.73;;;;;;;19.28;100.00;101173.97;4956144;28;20301;-75
2021/07/09 04:49:42;;;;;;;22.58;20.30;;;;;;;19.26;100.00;101181.72;4949331;28;20297;-77
2021/07/09 04:52:13;;;;;;;22.58;20.50;;;;;;;19.21;100.00;101184.66;4980793;28;20221;-76
2021/07/09 04:54:41;;;;;;;23.45;19.67;;;;;;;19.23;100.00;101178.78;4978331;28;20205;-77
2021/07/09 04:57:09;;;;;;;20.77;18.75;;;;;;;19.34;100.00;101178.22;4961259;28;20722;-76
2021/07/09 04:59:35;;;;;;;19.73;17.83;;;;;;;19.13;100.00;101185.38;4986522;28;20213;-76
2021/07/09 05:02:00;;;;;;;20.48;18.42;;;;;;;19.09;100.00;101181.63;4978674;28;20240;-77
2021/07/09 05:04:29;;;;;;;18.65;16.92;;;;;;;19.12;100.00;101180.19;4960356;28;20196;-76
2021/07/09 05:06:58;;;;;;;19.38;17.42;;;;;;;19.12;100.00;101181.03;4962666;28;20215;-76
2021/07/09 05:09:26;;;;;;;18.27;16.48;;;;;;;19.16;100.00;101184.75;4960751;28;20269;-76
2021/07/09 05:11:52;;;;;;;17.77;16.08;;;;;;;19.12;100.00;101181.03;4926176;28;20218;-77
2021/07/09 05:14:20;;;;;;;18.20;16.33;;;;;;;19.44;100.00;101177.94;4956146;28;20190;-77
2021/07/09 05:16:45;;;;;;;17.50;15.70;;;;;;;19.67;100.00;101172.84;4939599;29;20250;-77
2021/07/09 05:19:16;;;;;;;17.38;15.63;;;;;;;19.69;100.00;101159.56;4942462;28;20297;-77
2021/07/09 05:21:48;;;;;;;16.70;15.02;;;;;;;19.68;100.00;101163.44;4946667;28;20222;-77
2021/07/09 05:24:14;;;;;;;16.55;15.00;;;;;;;19.72;100.00;101169.13;4929616;28;20210;-78
2021/07/09 05:26:49;;;;;;;16.35;14.75;;;;;;;19.96;100.00;101177.81;4946519;29;20224;-77
2021/07/09 05:29:19;;;;;;;15.98;14.35;;;;;;;19.89;100.00;101175.53;4972222;28;20202;-76
2021/07/09 05:31:45;;;;;;;16.35;14.52;;;;;;;19.99;100.00;101183.50;4948913;28;20237;-79
2021/07/09 05:34:16;;;;;;;14.13;12.93;;;;;;;20.11;100.00;101169.91;4950362;28;20171;-77
2021/07/09 05:36:42;;;;;;;14.18;12.98;;;;;;;20.14;100.00;101177.53;4933471;28;20225;-77
2021/07/09 05:39:12;;;;;;;17.45;13.95;;;;;;;20.12;100.00;101177.03;4969721;28;20265;-78
2021/07/09 05:41:40;;;;;;;14.00;12.82;;;;;;;19.97;100.00;101179.44;4977132;28;20222;-77
2021/07/09 05:44:11;;;;;;;13.75;12.52;;;;;;;19.66;100.00;101182.22;4948304;28;20190;-77
2021/07/09 05:46:39;;;;;;;12.90;11.60;;;;;;;19.49;100.00;101169.53;4969231;28;20226;-77
2021/07/09 05:49:12;;;;;;;12.57;11.00;;;;;;;19.89;100.00;101177.47;4960831;28;20216;-76
2021/07/09 05:51:38;;;;;;;12.75;11.55;;;;;;;20.08;100.00;101184.34;4962386;28;20634;-78
2021/07/09 05:54:03;;;;;;;15.20;11.43;;;;;;;20.11;100.00;101176.22;4962436;28;20197;-77
2021/07/09 05:56:31;;;;;;;12.85;11.68;;;;;;;20.06;100.00;101174.78;4978697;28;20233;-76
2021/07/09 05:58:57;;;;;;;13.18;11.95;;;;;;;20.14;100.00;101177.53;4963960;28;20288;-76
2021/07/09 06:01:25;;;;;;;12.60;11.35;;;;;;;20.03;100.00;101170.69;4980292;28;20241;-76
2021/07/09 06:03:50;;;;;;;12.88;11.07;;;;;;;20.34;100.00;101187.94;4947576;28;20186;-77
2021/07/09 06:06:18;;;;;;;12.23;11.20;;;;;;;20.51;100.00;101197.88;4952005;28;20229;-77
2021/07/09 06:08:44;;;;;;;12.73;11.10;;;;;;;20.52;100.00;101199.47;4968046;28;20269;-77
2021/07/09 06:11:10;;;;;;;11.65;10.55;;;;;;;20.18;100.00;101193.13;4935195;28;20619;-76
2021/07/09 06:13:37;;;;;;;10.93;9.98;;;;;;;20.59;100.00;101199.81;4941296;29;20246;-76
2021/07/09 06:16:06;;;;;;;11.15;10.07;;;;;;;20.48;100.00;101195.75;4964835;28;20228;-77
2021/07/09 06:18:34;;;;;;;11.57;10.50;;;;;;;20.62;100.00;101198.34;4977213;28;20636;-77
2021/07/09 06:21:02;;;;;;;11.38;10.43;;;;;;;20.89;100.00;101201.59;4944420;28;20312;-76
2021/07/09 06:23:28;;;;;;;12.05;10.05;;;;;;;20.65;100.00;101201.31;4975440;28;20568;-77
2021/07/09 06:25:54;;;;;;;11.85;10.65;;;;;;;20.69;100.00;101196.75;4960910;28;20217;-77
2021/07/09 06:28:20;;;;;;;12.07;10.80;;;;;;;20.57;100.00;101202.09;4945034;28;20197;-76
2021/07/09 06:30:53;;;;;;;12.45;11.35;;;;;;;20.72;100.00;101204.38;4976041;28;20260;-76
2021/07/09 06:33:20;;;;;;;11.48;10.48;;;;;;;20.79;100.00;101207.47;4944631;28;20181;-76
2021/07/09 06:35:46;;;;;;;11.30;10.10;;;;;;;20.54;100.00;101199.97;4968872;28;20222;-74
2021/07/09 06:38:19;;;;;;;12.25;10.95;;;;;;;20.43;100.00;101203.38;4943250;28;20234;-75
2021/07/09 06:40:45;;;;;;;12.02;10.93;;;;;;;20.85;100.00;101195.94;4958489;28;20237;-76
2021/07/09 06:43:14;;;;;;;11.60;10.50;;;;;;;20.86;100.00;101202.28;4959998;28;20205;-76
2021/07/09 06:45:40;;;;;;;11.98;10.88;;;;;;;20.86;100.00;101192.03;4944236;28;20222;-76
2021/07/09 06:48:08;;;;;;;10.90;9.80;;;;;;;20.74;100.00;101196.59;4925637;28;20178;-76
2021/07/09 06:50:34;;;;;;;11.10;9.70;;;;;;;20.98;100.00;101194.94;4940222;28;20225;-77
2021/07/09 06:53:02;;;;;;;11.38;10.32;;;;;;;21.32;100.00;101198.44;4960703;28;20643;-77
2021/07/09 06:55:28;;;;;;;10.80;9.70;;;;;;;21.25;100.00;101203.66;4941274;28;20308;-77
2021/07/09 06:57:56;;;;;;;10.80;9.75;;;;;;;21.54;100.00;101203.78;4933754;29;20266;-77
2021/07/09 07:00:21;;;;;;;10.70;9.65;;;;;;;21.40;100.00;101202.31;4938794;28;20210;-77
2021/07/09 07:02:49;;;;;;;10.70;9.55;;;;;;;21.44;100.00;101212.41;4953562;29;20179;-77
2021/07/09 07:05:17;;;;;;;10.13;9.23;;;;;;;21.54;100.00;101208.47;4921403;29;20190;-76
2021/07/09 07:07:43;;;;;;;9.65;8.82;;;;;;;21.65;100.00;101224.41;4950172;29;20270;-76
2021/07/09 07:10:10;;;;;;;11.43;9.15;;;;;;;21.39;100.00;101217.28;4952496;28;20703;-78
2021/07/09 07:12:35;;;;;;;10.30;9.30;;;;;;;21.51;100.00;101211.91;4918814;28;20179;-76
2021/07/09 07:15:04;;;;;;;10.75;9.18;;;;;;;21.47;100.00;101219.25;4953398;28;20326;-76
2021/07/09 07:17:30;;;;;;;9.50;8.60;;;;;;;21.29;100.00;101218.44;4948528;28;20703;-75
2021/07/09 07:19:57;;;;;;;9.10;8.20;;;;;;;21.48;100.00;101221.69;4955730;28;20209;-78
2021/07/09 07:22:26;;;;;;;9.05;8.35;;;;;;;21.29;100.00;101207.38;4958378;28;20238;-76
2021/07/09 07:24:51;;;;;;;8.68;7.88;;;;;;;21.63;100.00;101212.84;4976197;28;20185;-77
2021/07/09 07:27:27;;;;;;;9.20;8.07;;;;;;;21.79;100.00;101205.59;4948113;28;20705;-77
2021/07/09 07:29:55;;;;;;;7.82;7.03;;;;;;;21.58;100.00;101212.22;4951871;28;20261;-75
2021/07/09 07:32:21;;;;;;;9.00;8.13;;;;;;;21.73;100.00;101218.81;4915576;28;20273;-75
2021/07/09 07:34:51;;;;;;;8.30;7.03;;;;;;;21.95;100.00;101213.00;4928982;29;20195;-75
2021/07/09 07:37:21;;;;;;;7.90;7.10;;;;;;;21.69;100.00;101217.06;4928397;29;20269;-76
2021/07/09 07:39:53;;;;;;;7.40;6.70;;;;;;;21.55;100.00;101216.44;4920092;29;20207;-75
2021/07/09 07:42:19;;;;;;;8.40;6.93;;;;;;;21.84;100.00;101213.72;4936136;29;20246;-75
2021/07/09 07:44:47;;;;;;;7.90;7.20;;;;;;;21.37;100.00;101225.91;4926165;28;20206;-75
2021/07/09 07:47:17;;;;;;;7.50;6.75;;;;;;;21.44;100.00;101220.69;4924478;29;20211;-75
2021/07/09 07:49:42;;;;;;;8.05;7.35;;;;;;;21.47;100.00;101225.59;4936964;29;20719;-76
2021/07/09 07:52:10;;;;;;;8.10;6.55;;;;;;;21.48;100.00;101221.69;4957546;28;20233;-75
2021/07/09 07:54:38;;;;;;;7.63;6.93;;;;;;;21.34;100.00;101226.56;4945079;28;20197;-74
2021/07/09 07:57:04;;;;;;;6.93;6.40;;;;;;;21.51;100.00;101226.53;4958501;28;20640;-76
2021/07/09 07:59:29;;;;;;;7.38;6.65;;;;;;;21.60;100.00;101232.06;4953653;28;20276;-76
2021/07/09 08:01:55;;;;;;;7.80;7.10;;;;;;;21.59;100.00;101233.19;4940584;28;20226;-75
2021/07/09 08:04:21;;;;;;;7.60;7.00;;;;;;;21.54;100.00;101231.44;4942395;28;20663;-76
2021/07/09 08:06:46;;;;;;;7.45;6.85;;;;;;;21.43;100.00;101234.88;4974544;28;20603;-76
2021/07/09 08:09:12;;;;;;;8.30;7.22;;;;;;;21.29;100.00;101231.47;4993434;28;20212;-75
2021/07/09 08:11:40;;;;;;;9.40;8.00;;;;;;;21.23;100.00;101235.53;4992980;28;20212;-75
2021/07/09 08:14:06;;;;;;;9.10;8.30;;;;;;;21.34;100.00;101229.34;4959390;28;20189;-75
2021/07/09 08:16:34;;;;;;;9.07;8.27;;;;;;;21.32;100.00;101228.03;4991244;28;20237;-74
2021/07/09 08:19:00;;;;;;;9.00;8.20;;;;;;;21.15;100.00;101235.53;4974857;28;20247;-74
2021/07/09 08:21:28;;;;;;;8.98;8.20;;;;;;;21.51;100.00;101234.84;4962107;28;20221;-75
2021/07/09 08:23:59;;;;;;;9.35;8.55;;;;;;;21.51;100.00;101232.06;4981846;28;20189;-75
2021/07/09 08:26:27;;;;;;;9.55;8.75;;;;;;;21.45;100.00;101232.59;4946469;28;20217;-75
2021/07/09 08:28:52;;;;;;;9.40;8.43;;;;;;;21.41;100.00;101232.44;4963932;28;20189;-75
2021/07/09 08:31:18;;;;;;;9.93;8.93;;;;;;;21.36;100.00;101238.09;4944072;28;20225;-74
2021/07/09 08:33:45;;;;;;;9.23;8.43;;;;;;;21.26;100.00;101241.22;4946805;28;20181;-69
2021/07/09 08:36:11;;;;;;;10.32;8.50;;;;;;;21.27;100.00;101229.00;4977534;28;20248;-71
2021/07/09 08:38:37;;;;;;;9.85;8.82;;;;;;;21.41;100.00;101237.97;4939664;28;20252;-72
2021/07/09 08:41:03;;;;;;;11.48;8.10;;;;;;;21.39;100.00;101234.69;4959381;28;20608;-71
2021/07/09 08:43:31;;;;;;;9.98;7.95;;;;;;;21.41;100.00;101229.69;4989715;28;20562;-72
2021/07/09 08:45:58;;;;;;;8.18;7.53;;;;;;;21.41;100.00;101240.75;4977757;28;20221;-71
2021/07/09 08:48:25;;;;;;;8.35;7.55;;;;;;;21.46;100.00;101236.97;4969724;28;20536;-75
2021/07/09 08:50:51;;;;;;;7.53;6.85;;;;;;;21.43;100.00;101230.16;4960152;28;20237;-75
2021/07/09 08:53:17;;;;;;;8.63;7.93;;;;;;;21.50;100.00;101229.63;4955240;28;20278;-74
2021/07/09 08:55:45;;;;;;;8.15;7.35;;;;;;;21.63;100.00;101230.25;4960076;28;20226;-74
2021/07/09 08:58:12;;;;;;;7.72;7.03;;;;;;;21.47;100.00;101228.34;4977424;28;20201;-74
2021/07/09 09:00:39;;;;;;;7.63;6.93;;;;;;;21.69;100.00;101234.44;4961115;28;20229;-73
2021/07/09 09:03:12;;;;;;;7.35;6.65;;;;;;;22.00;100.00;101223.09;4965569;28;20235;-74
2021/07/09 09:05:38;;;;;;;6.50;6.00;;;;;;;22.12;100.00;101226.75;4964456;28;20213;-72
2021/07/09 09:08:05;;;;;;;8.88;7.45;;;;;;;21.88;100.00;101226.53;4945658;28;20204;-74
2021/07/09 09:10:40;;;;;;;7.45;6.60;;;;;;;22.10;100.00;101227.06;4977220;28;20229;-73
2021/07/09 09:13:20;;;;;;;7.80;7.10;;;;;;;21.75;100.00;101224.00;4980265;28;20190;-73
2021/07/09 09:16:02;;;;;;;7.25;6.55;;;;;;;22.12;100.00;101222.06;4996422;28;20269;-73
2021/07/09 09:18:30;;;;;;;8.18;5.90;;;;;;;21.65;100.00;101210.56;4988261;28;20691;-73
2021/07/09 09:21:00;;;;;;;6.90;6.38;;;;;;;21.64;100.00;101206.16;4960626;28;20295;-74
2021/07/09 09:23:26;;;;;;;7.45;6.72;;;;;;;21.55;100.00;101202.63;4942245;28;20225;-73
2021/07/09 09:25:52;;;;;;;7.38;6.53;;;;;;;21.62;100.00;101200.16;4991137;28;20233;-73
2021/07/09 09:28:17;;;;;;;7.60;6.90;;;;;;;21.44;100.00;101201.34;4946290;28;20295;-72
2021/07/09 09:30:45;;;;;;;7.90;7.10;;;;;;;21.45;100.00;101205.75;4961686;28;20222;-74
2021/07/09 09:33:15;;;;;;;8.18;7.38;;;;;;;21.34;100.00;101204.44;4955410;28;20195;-74
2021/07/09 09:35:48;;;;;;;7.88;7.07;;;;;;;21.25;100.00;101211.16;4959958;28;20228;-73
2021/07/09 09:38:17;;;;;;;8.30;7.53;;;;;;;21.41;100.00;101204.78;4963319;28;20702;-75
2021/07/09 09:40:44;;;;;;;7.72;6.93;;;;;;;21.54;100.00;101195.47;4967746;28;20240;-76
2021/07/09 09:43:14;;;;;;;7.30;6.63;;;;;;;21.73;100.00;101193.09;4977002;28;20193;-76
2021/07/09 09:45:39;;;;;;;8.38;7.20;;;;;;;21.47;100.00;101197.94;4965729;28;20236;-75
2021/07/09 09:48:09;;;;;;;8.20;7.03;;;;;;;21.29;100.00;101195.53;4997718;28;20189;-76
2021/07/09 09:50:45;;;;;;;7.90;7.10;;;;;;;21.24;100.00;101203.97;4966569;28;20304;-77
2021/07/09 09:53:15;;;;;;;7.40;6.80;;;;;;;21.19;100.00;101206.09;4950050;28;20181;-76
2021/07/09 09:55:43;;;;;;;7.97;7.25;;;;;;;20.92;100.00;101207.28;4961215;28;20230;-76
2021/07/09 09:58:19;;;;;;;8.82;8.00;;;;;;;20.84;100.00;101204.53;4949839;28;20200;-75
2021/07/09 10:00:47;;;;;;;8.52;7.72;;;;;;;20.88;100.00;101206.34;4948048;28;20233;-76
2021/07/09 10:03:16;;;;;;;8.93;8.13;;;;;;;20.91;100.00;101205.69;4948736;28;20178;-75
2021/07/09 10:05:47;;;;;;;8.05;7.05;;;;;;;20.84;100.00;101199.84;4962078;28;20367;-77
2021/07/09 10:08:14;;;;;;;8.00;7.30;;;;;;;20.90;100.00;101204.06;4963461;28;20190;-75
2021/07/09 10:10:42;;;;;;;7.72;6.97;;;;;;;21.15;100.00;101211.47;4947792;28;20707;-75
2021/07/09 10:13:09;;;;;;;7.47;6.88;;;;;;;21.44;100.00;101212.41;4944884;28;20289;-76
2021/07/09 10:15:36;;;;;;;7.30;6.63;;;;;;;21.07;100.00;101214.28;4979394;28;20232;-76
2021/07/09 10:18:02;;;;;;;7.60;7.10;;;;;;;20.99;100.00;101212.34;4947060;28;20281;-76
2021/07/09 10:20:28;;;;;;;8.10;7.28;;;;;;;21.05;100.00;101216.56;4987311;28;20299;-75
2021/07/09 10:22:57;;;;;;;8.35;7.55;;;;;;;20.74;100.00;101215.94;4978258;28;20189;-74
2021/07/09 10:25:27;;;;;;;8.77;7.75;;;;;;;20.74;100.00;101210.41;4974960;28;20201;-75
2021/07/09 10:27:58;;;;;;;8.77;7.97;;;;;;;20.81;100.00;101210.72;4937713;28;20205;-75
2021/07/09 10:30:39;;;;;;;8.32;7.47;;;;;;;20.81;100.00;101213.50;4960534;28;20300;-73
2021/07/09 10:33:33;;;;;;;9.27;8.45;;;;;;;20.78;100.00;101214.13;4963779;28;20193;-74
2021/07/09 10:36:06;;;;;;;8.88;8.13;;;;;;;20.86;100.00;101205.84;4960774;28;20228;-74
2021/07/09 10:38:39;;;;;;;9.15;8.25;;;;;;;21.02;100.00;101206.16;4962179;28;20202;-74
2021/07/09 10:41:16;;;;;;;16.83;15.30;;;;;;;21.06;100.00;101196.06;4975137;28;20598;-75
2021/07/09 10:44:16;;;;;;;11.15;10.00;;;;;;;21.17;100.00;101203.69;4942739;28;20192;-75
2021/07/09 10:46:43;;;;;;;9.25;8.48;;;;;;;21.31;100.00;101205.09;4984603;28;20225;-76
2021/07/09 10:49:08;;;;;;;9.05;8.10;;;;;;;21.42;100.00;101202.84;4940982;28;20653;-75
2021/07/09 10:51:52;;;;;;;8.52;7.72;;;;;;;21.39;100.00;101212.56;4972770;28;20667;-76
2021/07/09 10:54:30;;;;;;;8.18;7.55;;;;;;;21.36;100.00;101213.22;4946357;28;20278;-76
2021/07/09 10:57:23;;;;;;;8.63;7.72;;;;;;;21.34;100.00;101204.44;4944451;28;20602;-76
2021/07/09 11:00:19;;;;;;;8.73;7.72;;;;;;;21.18;100.00;101207.25;4976689;28;20202;-76
2021/07/09 11:03:01;;;;;;;8.85;8.00;;;;;;;21.35;100.00;101206.06;4983194;28;20699;-75
2021/07/09 11:05:53;;;;;;;8.93;7.90;;;;;;;21.37;100.00;101209.34;4955350;28;20226;-76
2021/07/09 11:08:34;;;;;;;9.35;8.63;;;;;;;21.55;100.00;101208.16;4994682;28;20182;-75
2021/07/09 11:11:01;;;;;;;8.48;7.78;;;;;;;21.70;100.00;101216.72;4973171;28;20610;-76
2021/07/09 11:13:42;;;;;;;8.68;7.97;;;;;;;22.06;100.00;101206.75;4956207;28;20178;-75
2021/07/09 11:16:25;;;;;;;8.57;7.72;;;;;;;21.90;100.00;101204.09;4970746;28;20292;-75